sensor_id;sensor_type;location;lat;lon;timestamp;P1;durP1;ratioP1;P2;durP2;ratioP2
69226;SDS011;56334;52.398;7.552;2023-12-14T00:02:08;20.90;;;7.93;;
69226;SDS011;56334;52.398;7.552;2023-12-14T00:04:34;18.92;;;7.10;;
69226;SDS011;56334;52.398;7.552;2023-12-14T00:07:00;20.45;;;7.43;;
69226;SDS011;56334;52.398;7.552;2023-12-14T00:09:26;18.90;;;7.38;;
69226;SDS011;56334;52.398;7.552;2023-12-14T00:11:52;19.40;;;7.53;;
69226;SDS011;56334;52.398;7.552;2023-12-14T00:14:18;22.83;;;8.43;;
69226;SDS011;56334;52.398;7.552;2023-12-14T00:16:44;22.33;;;8.63;;
69226;SDS011;56334;52.398;7.552;2023-12-14T00:19:10;20.40;;;7.90;;
69226;SDS011;56334;52.398;7.552;2023-12-14T00:21:36;20.52;;;7.78;;
69226;SDS011;56334;52.398;7.552;2023-12-14T00:24:02;21.33;;;8.02;;
69226;SDS011;56334;52.398;7.552;2023-12-14T00:26:28;22.52;;;8.23;;
69226;SDS011;56334;52.398;7.552;2023-12-14T00:28:54;18.48;;;7.63;;
69226;SDS011;56334;52.398;7.552;2023-12-14T00:31:20;19.17;;;7.80;;
69226;SDS011;56334;52.398;7.552;2023-12-14T00:33:46;18.17;;;7.60;;
69226;SDS011;56334;52.398;7.552;2023-12-14T00:36:18;18.80;;;7.45;;
69226;SDS011;56334;52.398;7.552;2023-12-14T00:38:44;18.92;;;7.18;;
69226;SDS011;56334;52.398;7.552;2023-12-14T00:41:11;19.55;;;7.38;;
69226;SDS011;56334;52.398;7.552;2023-12-14T00:43:37;20.85;;;7.72;;
69226;SDS011;56334;52.398;7.552;2023-12-14T00:46:03;17.85;;;7.00;;
69226;SDS011;56334;52.398;7.552;2023-12-14T00:48:29;18.15;;;7.78;;
69226;SDS011;56334;52.398;7.552;2023-12-14T00:50:55;18.70;;;7.50;;
69226;SDS011;56334;52.398;7.552;2023-12-14T00:53:21;17.38;;;6.93;;
69226;SDS011;56334;52.398;7.552;2023-12-14T00:55:47;19.27;;;7.20;;
69226;SDS011;56334;52.398;7.552;2023-12-14T00:58:13;19.73;;;6.70;;
69226;SDS011;56334;52.398;7.552;2023-12-14T01:00:39;20.00;;;7.28;;
69226;SDS011;56334;52.398;7.552;2023-12-14T01:03:05;20.52;;;7.82;;
69226;SDS011;56334;52.398;7.552;2023-12-14T01:05:31;15.35;;;6.25;;
69226;SDS011;56334;52.398;7.552;2023-12-14T01:07:57;17.67;;;6.68;;
69226;SDS011;56334;52.398;7.552;2023-12-14T01:10:23;17.48;;;6.80;;
69226;SDS011;56334;52.398;7.552;2023-12-14T01:12:49;16.23;;;6.53;;
69226;SDS011;56334;52.398;7.552;2023-12-14T01:15:15;17.35;;;7.13;;
69226;SDS011;56334;52.398;7.552;2023-12-14T01:17:41;15.93;;;6.05;;
69226;SDS011;56334;52.398;7.552;2023-12-14T01:20:07;17.48;;;6.63;;
69226;SDS011;56334;52.398;7.552;2023-12-14T01:22:33;15.50;;;6.25;;
69226;SDS011;56334;52.398;7.552;2023-12-14T01:25:00;16.85;;;7.00;;
69226;SDS011;56334;52.398;7.552;2023-12-14T01:27:26;16.85;;;6.68;;
69226;SDS011;56334;52.398;7.552;2023-12-14T01:29:52;17.13;;;6.68;;
69226;SDS011;56334;52.398;7.552;2023-12-14T01:32:18;16.05;;;6.25;;
69226;SDS011;56334;52.398;7.552;2023-12-14T01:34:44;16.58;;;6.50;;
69226;SDS011;56334;52.398;7.552;2023-12-14T01:37:10;15.68;;;6.45;;
69226;SDS011;56334;52.398;7.552;2023-12-14T01:39:36;15.05;;;5.65;;
69226;SDS011;56334;52.398;7.552;2023-12-14T01:42:02;16.00;;;6.30;;
69226;SDS011;56334;52.398;7.552;2023-12-14T01:44:28;17.65;;;6.55;;
69226;SDS011;56334;52.398;7.552;2023-12-14T01:46:54;16.38;;;6.68;;
69226;SDS011;56334;52.398;7.552;2023-12-14T01:49:20;19.48;;;7.20;;
69226;SDS011;56334;52.398;7.552;2023-12-14T01:51:46;23.83;;;9.00;;
69226;SDS011;56334;52.398;7.552;2023-12-14T01:54:12;23.30;;;9.35;;
69226;SDS011;56334;52.398;7.552;2023-12-14T01:56:38;22.73;;;8.32;;
69226;SDS011;56334;52.398;7.552;2023-12-14T01:59:05;20.73;;;8.52;;
69226;SDS011;56334;52.398;7.552;2023-12-14T02:01:44;21.15;;;9.13;;
69226;SDS011;56334;52.398;7.552;2023-12-14T02:04:11;22.75;;;8.60;;
69226;SDS011;56334;52.398;7.552;2023-12-14T02:06:37;21.23;;;8.48;;
69226;SDS011;56334;52.398;7.552;2023-12-14T02:09:03;18.63;;;7.28;;
69226;SDS011;56334;52.398;7.552;2023-12-14T02:11:29;20.60;;;7.75;;
69226;SDS011;56334;52.398;7.552;2023-12-14T02:13:55;19.40;;;7.68;;
69226;SDS011;56334;52.398;7.552;2023-12-14T02:16:21;19.08;;;7.50;;
69226;SDS011;56334;52.398;7.552;2023-12-14T02:18:47;18.48;;;7.70;;
69226;SDS011;56334;52.398;7.552;2023-12-14T02:21:13;19.33;;;7.57;;
69226;SDS011;56334;52.398;7.552;2023-12-14T02:23:45;18.77;;;7.30;;
69226;SDS011;56334;52.398;7.552;2023-12-14T02:26:12;18.60;;;7.13;;
69226;SDS011;56334;52.398;7.552;2023-12-14T02:28:38;19.75;;;8.18;;
69226;SDS011;56334;52.398;7.552;2023-12-14T02:31:04;20.02;;;7.60;;
69226;SDS011;56334;52.398;7.552;2023-12-14T02:33:30;17.67;;;7.47;;
69226;SDS011;56334;52.398;7.552;2023-12-14T02:35:56;20.70;;;7.22;;
69226;SDS011;56334;52.398;7.552;2023-12-14T02:38:22;19.35;;;7.60;;
69226;SDS011;56334;52.398;7.552;2023-12-14T02:40:48;22.00;;;8.63;;
69226;SDS011;56334;52.398;7.552;2023-12-14T02:43:18;20.67;;;8.32;;
69226;SDS011;56334;52.398;7.552;2023-12-14T02:45:44;22.13;;;8.70;;
69226;SDS011;56334;52.398;7.552;2023-12-14T02:48:10;22.48;;;8.30;;
69226;SDS011;56334;52.398;7.552;2023-12-14T02:50:36;19.08;;;7.90;;
69226;SDS011;56334;52.398;7.552;2023-12-14T02:53:02;20.70;;;7.85;;
69226;SDS011;56334;52.398;7.552;2023-12-14T02:55:28;23.13;;;8.80;;
69226;SDS011;56334;52.398;7.552;2023-12-14T02:57:54;22.33;;;8.93;;
69226;SDS011;56334;52.398;7.552;2023-12-14T03:00:20;25.95;;;9.88;;
69226;SDS011;56334;52.398;7.552;2023-12-14T03:02:46;27.70;;;9.98;;
69226;SDS011;56334;52.398;7.552;2023-12-14T03:05:12;27.52;;;10.57;;
69226;SDS011;56334;52.398;7.552;2023-12-14T03:07:38;24.65;;;9.32;;
69226;SDS011;56334;52.398;7.552;2023-12-14T03:10:04;26.67;;;10.48;;
69226;SDS011;56334;52.398;7.552;2023-12-14T03:12:30;25.27;;;9.82;;
69226;SDS011;56334;52.398;7.552;2023-12-14T03:14:56;27.13;;;10.50;;
69226;SDS011;56334;52.398;7.552;2023-12-14T03:17:22;26.02;;;9.68;;
69226;SDS011;56334;52.398;7.552;2023-12-14T03:19:48;27.35;;;10.05;;
69226;SDS011;56334;52.398;7.552;2023-12-14T03:22:14;26.52;;;10.13;;
69226;SDS011;56334;52.398;7.552;2023-12-14T03:24:41;27.38;;;10.50;;
69226;SDS011;56334;52.398;7.552;2023-12-14T03:27:08;26.55;;;10.25;;
69226;SDS011;56334;52.398;7.552;2023-12-14T03:29:33;25.65;;;10.32;;
69226;SDS011;56334;52.398;7.552;2023-12-14T03:32:00;29.75;;;11.30;;
69226;SDS011;56334;52.398;7.552;2023-12-14T03:34:26;26.70;;;10.27;;
69226;SDS011;56334;52.398;7.552;2023-12-14T03:36:52;27.58;;;10.57;;
69226;SDS011;56334;52.398;7.552;2023-12-14T03:39:18;26.48;;;10.10;;
69226;SDS011;56334;52.398;7.552;2023-12-14T03:41:44;24.90;;;9.75;;
69226;SDS011;56334;52.398;7.552;2023-12-14T03:44:10;28.13;;;10.85;;
69226;SDS011;56334;52.398;7.552;2023-12-14T03:46:36;25.75;;;10.20;;
69226;SDS011;56334;52.398;7.552;2023-12-14T03:49:02;27.48;;;10.07;;
69226;SDS011;56334;52.398;7.552;2023-12-14T03:51:29;26.35;;;10.10;;
69226;SDS011;56334;52.398;7.552;2023-12-14T03:53:55;26.85;;;10.80;;
69226;SDS011;56334;52.398;7.552;2023-12-14T03:56:21;28.45;;;11.30;;
69226;SDS011;56334;52.398;7.552;2023-12-14T03:58:47;26.75;;;10.95;;
69226;SDS011;56334;52.398;7.552;2023-12-14T04:01:19;29.90;;;11.23;;
69226;SDS011;56334;52.398;7.552;2023-12-14T04:03:46;30.48;;;11.38;;
69226;SDS011;56334;52.398;7.552;2023-12-14T04:06:12;32.58;;;11.65;;
69226;SDS011;56334;52.398;7.552;2023-12-14T04:08:38;30.83;;;12.13;;
69226;SDS011;56334;52.398;7.552;2023-12-14T04:11:05;30.67;;;11.63;;
69226;SDS011;56334;52.398;7.552;2023-12-14T04:13:31;34.92;;;12.07;;
69226;SDS011;56334;52.398;7.552;2023-12-14T04:15:57;30.80;;;12.15;;
69226;SDS011;56334;52.398;7.552;2023-12-14T04:18:23;33.15;;;12.10;;
69226;SDS011;56334;52.398;7.552;2023-12-14T04:20:49;32.67;;;12.27;;
69226;SDS011;56334;52.398;7.552;2023-12-14T04:23:15;35.35;;;12.73;;
69226;SDS011;56334;52.398;7.552;2023-12-14T04:25:41;33.25;;;11.90;;
69226;SDS011;56334;52.398;7.552;2023-12-14T04:28:07;36.42;;;13.65;;
69226;SDS011;56334;52.398;7.552;2023-12-14T04:30:33;33.60;;;12.93;;
69226;SDS011;56334;52.398;7.552;2023-12-14T04:32:59;32.15;;;12.15;;
69226;SDS011;56334;52.398;7.552;2023-12-14T04:35:25;33.47;;;11.57;;
69226;SDS011;56334;52.398;7.552;2023-12-14T04:37:51;29.13;;;11.43;;
69226;SDS011;56334;52.398;7.552;2023-12-14T04:40:17;32.90;;;12.30;;
69226;SDS011;56334;52.398;7.552;2023-12-14T04:42:43;29.58;;;11.32;;
69226;SDS011;56334;52.398;7.552;2023-12-14T04:45:09;30.50;;;12.30;;
69226;SDS011;56334;52.398;7.552;2023-12-14T04:47:36;32.67;;;12.55;;
69226;SDS011;56334;52.398;7.552;2023-12-14T04:50:02;29.33;;;11.70;;
69226;SDS011;56334;52.398;7.552;2023-12-14T04:52:29;28.77;;;11.20;;
69226;SDS011;56334;52.398;7.552;2023-12-14T04:54:55;27.77;;;10.73;;
69226;SDS011;56334;52.398;7.552;2023-12-14T04:57:21;28.02;;;11.40;;
69226;SDS011;56334;52.398;7.552;2023-12-14T04:59:46;29.15;;;11.32;;
69226;SDS011;56334;52.398;7.552;2023-12-14T05:02:12;29.55;;;10.93;;
69226;SDS011;56334;52.398;7.552;2023-12-14T05:04:38;30.10;;;10.88;;
69226;SDS011;56334;52.398;7.552;2023-12-14T05:07:05;29.95;;;10.65;;
69226;SDS011;56334;52.398;7.552;2023-12-14T05:09:30;28.17;;;10.55;;
69226;SDS011;56334;52.398;7.552;2023-12-14T05:11:56;26.65;;;10.88;;
69226;SDS011;56334;52.398;7.552;2023-12-14T05:14:22;26.73;;;10.57;;
69226;SDS011;56334;52.398;7.552;2023-12-14T05:16:49;29.98;;;10.52;;
69226;SDS011;56334;52.398;7.552;2023-12-14T05:19:16;25.40;;;10.15;;
69226;SDS011;56334;52.398;7.552;2023-12-14T05:21:42;27.70;;;10.82;;
69226;SDS011;56334;52.398;7.552;2023-12-14T05:24:08;26.17;;;10.48;;
69226;SDS011;56334;52.398;7.552;2023-12-14T05:26:34;27.48;;;10.43;;
69226;SDS011;56334;52.398;7.552;2023-12-14T05:29:00;26.55;;;10.65;;
69226;SDS011;56334;52.398;7.552;2023-12-14T05:31:26;25.83;;;10.43;;
69226;SDS011;56334;52.398;7.552;2023-12-14T05:33:52;26.48;;;9.90;;
69226;SDS011;56334;52.398;7.552;2023-12-14T05:36:18;30.02;;;10.68;;
69226;SDS011;56334;52.398;7.552;2023-12-14T05:38:44;30.90;;;11.15;;
69226;SDS011;56334;52.398;7.552;2023-12-14T05:41:10;28.42;;;11.23;;
69226;SDS011;56334;52.398;7.552;2023-12-14T05:43:36;27.83;;;11.05;;
69226;SDS011;56334;52.398;7.552;2023-12-14T05:46:02;26.88;;;10.27;;
69226;SDS011;56334;52.398;7.552;2023-12-14T05:48:28;28.58;;;11.27;;
69226;SDS011;56334;52.398;7.552;2023-12-14T05:50:55;29.83;;;10.88;;
69226;SDS011;56334;52.398;7.552;2023-12-14T05:53:22;28.85;;;10.75;;
69226;SDS011;56334;52.398;7.552;2023-12-14T05:55:48;27.15;;;10.23;;
69226;SDS011;56334;52.398;7.552;2023-12-14T05:58:14;28.38;;;10.15;;
69226;SDS011;56334;52.398;7.552;2023-12-14T06:00:40;28.33;;;10.23;;
69226;SDS011;56334;52.398;7.552;2023-12-14T06:03:06;25.33;;;9.73;;
69226;SDS011;56334;52.398;7.552;2023-12-14T06:05:32;27.65;;;9.70;;
69226;SDS011;56334;52.398;7.552;2023-12-14T06:07:58;27.17;;;10.00;;
69226;SDS011;56334;52.398;7.552;2023-12-14T06:10:24;27.45;;;10.68;;
69226;SDS011;56334;52.398;7.552;2023-12-14T06:12:50;24.35;;;9.68;;
69226;SDS011;56334;52.398;7.552;2023-12-14T06:15:16;24.10;;;10.02;;
69226;SDS011;56334;52.398;7.552;2023-12-14T06:17:42;29.10;;;11.73;;
69226;SDS011;56334;52.398;7.552;2023-12-14T06:20:08;28.20;;;10.63;;
69226;SDS011;56334;52.398;7.552;2023-12-14T06:22:37;26.38;;;9.90;;
69226;SDS011;56334;52.398;7.552;2023-12-14T06:25:03;26.05;;;9.68;;
69226;SDS011;56334;52.398;7.552;2023-12-14T06:27:30;24.20;;;9.55;;
69226;SDS011;56334;52.398;7.552;2023-12-14T06:29:55;24.40;;;9.43;;
69226;SDS011;56334;52.398;7.552;2023-12-14T06:32:21;27.08;;;10.27;;
69226;SDS011;56334;52.398;7.552;2023-12-14T06:34:47;28.15;;;10.73;;
69226;SDS011;56334;52.398;7.552;2023-12-14T06:37:14;26.65;;;9.80;;
69226;SDS011;56334;52.398;7.552;2023-12-14T06:39:42;24.92;;;9.63;;
69226;SDS011;56334;52.398;7.552;2023-12-14T06:42:08;26.20;;;10.18;;
69226;SDS011;56334;52.398;7.552;2023-12-14T06:44:34;24.20;;;9.57;;
69226;SDS011;56334;52.398;7.552;2023-12-14T06:47:01;23.15;;;9.55;;
69226;SDS011;56334;52.398;7.552;2023-12-14T06:49:27;22.83;;;9.10;;
69226;SDS011;56334;52.398;7.552;2023-12-14T06:51:53;21.98;;;8.98;;
69226;SDS011;56334;52.398;7.552;2023-12-14T06:54:19;23.35;;;9.40;;
69226;SDS011;56334;52.398;7.552;2023-12-14T06:56:45;23.30;;;9.30;;
69226;SDS011;56334;52.398;7.552;2023-12-14T06:59:11;24.15;;;10.02;;
69226;SDS011;56334;52.398;7.552;2023-12-14T07:01:37;23.10;;;9.85;;
69226;SDS011;56334;52.398;7.552;2023-12-14T07:04:03;22.42;;;9.95;;
69226;SDS011;56334;52.398;7.552;2023-12-14T07:06:29;24.25;;;10.05;;
69226;SDS011;56334;52.398;7.552;2023-12-14T07:08:55;22.42;;;8.98;;
69226;SDS011;56334;52.398;7.552;2023-12-14T07:11:21;21.55;;;9.25;;
69226;SDS011;56334;52.398;7.552;2023-12-14T07:13:47;21.63;;;9.00;;
69226;SDS011;56334;52.398;7.552;2023-12-14T07:16:13;22.55;;;8.95;;
69226;SDS011;56334;52.398;7.552;2023-12-14T07:18:40;20.73;;;8.38;;
69226;SDS011;56334;52.398;7.552;2023-12-14T07:21:07;20.15;;;8.80;;
69226;SDS011;56334;52.398;7.552;2023-12-14T07:23:33;22.63;;;9.20;;
69226;SDS011;56334;52.398;7.552;2023-12-14T07:25:59;21.98;;;8.82;;
69226;SDS011;56334;52.398;7.552;2023-12-14T07:28:25;20.13;;;8.55;;
69226;SDS011;56334;52.398;7.552;2023-12-14T07:30:52;19.23;;;8.13;;
69226;SDS011;56334;52.398;7.552;2023-12-14T07:33:18;20.20;;;8.05;;
69226;SDS011;56334;52.398;7.552;2023-12-14T07:35:44;19.98;;;8.18;;
69226;SDS011;56334;52.398;7.552;2023-12-14T07:38:10;21.25;;;8.35;;
69226;SDS011;56334;52.398;7.552;2023-12-14T07:40:36;18.40;;;8.65;;
69226;SDS011;56334;52.398;7.552;2023-12-14T07:43:06;19.30;;;8.35;;
69226;SDS011;56334;52.398;7.552;2023-12-14T07:45:32;20.55;;;8.57;;
69226;SDS011;56334;52.398;7.552;2023-12-14T07:47:59;20.30;;;8.32;;
69226;SDS011;56334;52.398;7.552;2023-12-14T07:50:25;21.25;;;8.43;;
69226;SDS011;56334;52.398;7.552;2023-12-14T07:52:51;19.17;;;8.52;;
69226;SDS011;56334;52.398;7.552;2023-12-14T07:55:17;19.85;;;8.57;;
69226;SDS011;56334;52.398;7.552;2023-12-14T07:57:43;20.58;;;8.55;;
69226;SDS011;56334;52.398;7.552;2023-12-14T08:00:10;20.73;;;8.55;;
69226;SDS011;56334;52.398;7.552;2023-12-14T08:02:36;20.13;;;8.85;;
69226;SDS011;56334;52.398;7.552;2023-12-14T08:05:02;19.23;;;8.13;;
69226;SDS011;56334;52.398;7.552;2023-12-14T08:07:28;19.90;;;8.18;;
69226;SDS011;56334;52.398;7.552;2023-12-14T08:09:57;19.40;;;8.45;;
69226;SDS011;56334;52.398;7.552;2023-12-14T08:12:24;20.75;;;8.75;;
69226;SDS011;56334;52.398;7.552;2023-12-14T08:14:50;20.95;;;8.27;;
69226;SDS011;56334;52.398;7.552;2023-12-14T08:17:16;19.48;;;8.45;;
69226;SDS011;56334;52.398;7.552;2023-12-14T08:19:43;19.98;;;8.30;;
69226;SDS011;56334;52.398;7.552;2023-12-14T08:22:09;19.90;;;8.05;;
69226;SDS011;56334;52.398;7.552;2023-12-14T08:24:37;20.65;;;8.85;;
69226;SDS011;56334;52.398;7.552;2023-12-14T08:27:03;20.08;;;9.13;;
69226;SDS011;56334;52.398;7.552;2023-12-14T08:29:29;21.33;;;8.82;;
69226;SDS011;56334;52.398;7.552;2023-12-14T08:31:55;20.33;;;8.00;;
69226;SDS011;56334;52.398;7.552;2023-12-14T08:34:25;20.42;;;8.50;;
69226;SDS011;56334;52.398;7.552;2023-12-14T08:36:51;20.27;;;8.77;;
69226;SDS011;56334;52.398;7.552;2023-12-14T08:39:17;20.75;;;8.38;;
69226;SDS011;56334;52.398;7.552;2023-12-14T08:41:45;19.08;;;8.27;;
69226;SDS011;56334;52.398;7.552;2023-12-14T08:44:12;20.80;;;8.85;;
69226;SDS011;56334;52.398;7.552;2023-12-14T08:46:38;21.38;;;9.50;;
69226;SDS011;56334;52.398;7.552;2023-12-14T08:49:04;18.63;;;8.18;;
69226;SDS011;56334;52.398;7.552;2023-12-14T08:51:30;23.40;;;9.60;;
69226;SDS011;56334;52.398;7.552;2023-12-14T08:53:56;20.65;;;8.88;;
69226;SDS011;56334;52.398;7.552;2023-12-14T08:56:22;22.58;;;9.20;;
69226;SDS011;56334;52.398;7.552;2023-12-14T08:58:48;23.27;;;9.43;;
69226;SDS011;56334;52.398;7.552;2023-12-14T09:01:20;19.58;;;8.38;;
69226;SDS011;56334;52.398;7.552;2023-12-14T09:03:47;21.10;;;8.70;;
69226;SDS011;56334;52.398;7.552;2023-12-14T09:06:13;21.90;;;9.05;;
69226;SDS011;56334;52.398;7.552;2023-12-14T09:08:39;19.25;;;8.68;;
69226;SDS011;56334;52.398;7.552;2023-12-14T09:11:06;23.35;;;9.30;;
69226;SDS011;56334;52.398;7.552;2023-12-14T09:13:32;24.10;;;8.90;;
69226;SDS011;56334;52.398;7.552;2023-12-14T09:15:58;19.98;;;8.38;;
69226;SDS011;56334;52.398;7.552;2023-12-14T09:18:24;20.88;;;9.32;;
69226;SDS011;56334;52.398;7.552;2023-12-14T09:20:50;21.15;;;8.65;;
69226;SDS011;56334;52.398;7.552;2023-12-14T09:23:16;23.38;;;9.60;;
69226;SDS011;56334;52.398;7.552;2023-12-14T09:25:43;22.88;;;9.60;;
69226;SDS011;56334;52.398;7.552;2023-12-14T09:28:09;20.83;;;8.90;;
69226;SDS011;56334;52.398;7.552;2023-12-14T09:30:35;22.15;;;8.98;;
69226;SDS011;56334;52.398;7.552;2023-12-14T09:33:01;23.25;;;8.70;;
69226;SDS011;56334;52.398;7.552;2023-12-14T09:35:27;20.55;;;8.65;;
69226;SDS011;56334;52.398;7.552;2023-12-14T09:37:53;20.10;;;8.40;;
69226;SDS011;56334;52.398;7.552;2023-12-14T09:40:21;23.75;;;9.15;;
69226;SDS011;56334;52.398;7.552;2023-12-14T09:42:48;21.90;;;8.80;;
69226;SDS011;56334;52.398;7.552;2023-12-14T09:45:14;21.67;;;8.18;;
69226;SDS011;56334;52.398;7.552;2023-12-14T09:47:42;19.20;;;8.23;;
69226;SDS011;56334;52.398;7.552;2023-12-14T09:50:08;18.52;;;8.02;;
69226;SDS011;56334;52.398;7.552;2023-12-14T09:52:34;22.38;;;8.30;;
69226;SDS011;56334;52.398;7.552;2023-12-14T09:55:01;21.92;;;8.88;;
69226;SDS011;56334;52.398;7.552;2023-12-14T09:57:28;20.17;;;8.18;;
69226;SDS011;56334;52.398;7.552;2023-12-14T09:59:55;22.10;;;8.75;;
69226;SDS011;56334;52.398;7.552;2023-12-14T10:02:24;19.52;;;7.60;;
69226;SDS011;56334;52.398;7.552;2023-12-14T10:04:51;21.25;;;8.25;;
69226;SDS011;56334;52.398;7.552;2023-12-14T10:07:18;19.95;;;8.23;;
69226;SDS011;56334;52.398;7.552;2023-12-14T10:09:44;20.77;;;7.82;;
69226;SDS011;56334;52.398;7.552;2023-12-14T10:12:10;19.63;;;7.10;;
69226;SDS011;56334;52.398;7.552;2023-12-14T10:14:36;19.63;;;7.57;;
69226;SDS011;56334;52.398;7.552;2023-12-14T10:19:29;19.45;;;7.20;;
69226;SDS011;56334;52.398;7.552;2023-12-14T10:21:55;18.20;;;7.20;;
69226;SDS011;56334;52.398;7.552;2023-12-14T10:24:21;20.15;;;7.25;;
69226;SDS011;56334;52.398;7.552;2023-12-14T10:26:48;18.95;;;7.25;;
69226;SDS011;56334;52.398;7.552;2023-12-14T10:29:16;19.08;;;7.63;;
69226;SDS011;56334;52.398;7.552;2023-12-14T10:31:43;18.50;;;6.63;;
69226;SDS011;56334;52.398;7.552;2023-12-14T10:34:09;18.40;;;7.20;;
69226;SDS011;56334;52.398;7.552;2023-12-14T10:36:37;18.70;;;7.65;;
69226;SDS011;56334;52.398;7.552;2023-12-14T10:39:03;20.63;;;8.45;;
69226;SDS011;56334;52.398;7.552;2023-12-14T10:41:30;19.08;;;7.43;;
69226;SDS011;56334;52.398;7.552;2023-12-14T10:43:57;20.60;;;7.30;;
69226;SDS011;56334;52.398;7.552;2023-12-14T10:46:24;18.00;;;6.63;;
69226;SDS011;56334;52.398;7.552;2023-12-14T10:48:50;19.52;;;6.97;;
69226;SDS011;56334;52.398;7.552;2023-12-14T10:51:20;19.80;;;7.63;;
69226;SDS011;56334;52.398;7.552;2023-12-14T10:53:47;37.85;;;11.65;;
69226;SDS011;56334;52.398;7.552;2023-12-14T10:56:14;21.15;;;7.15;;
69226;SDS011;56334;52.398;7.552;2023-12-14T11:01:13;18.35;;;6.90;;
69226;SDS011;56334;52.398;7.552;2023-12-14T11:03:40;16.88;;;6.50;;
69226;SDS011;56334;52.398;7.552;2023-12-14T11:08:58;18.35;;;6.72;;
69226;SDS011;56334;52.398;7.552;2023-12-14T11:13:52;17.65;;;6.03;;
69226;SDS011;56334;52.398;7.552;2023-12-14T11:16:27;19.30;;;6.85;;
69226;SDS011;56334;52.398;7.552;2023-12-14T11:21:39;16.85;;;6.45;;
69226;SDS011;56334;52.398;7.552;2023-12-14T11:24:05;19.63;;;6.35;;
69226;SDS011;56334;52.398;7.552;2023-12-14T11:26:31;21.17;;;7.10;;
69226;SDS011;56334;52.398;7.552;2023-12-14T11:28:57;20.80;;;6.70;;
69226;SDS011;56334;52.398;7.552;2023-12-14T11:31:23;17.35;;;7.18;;
69226;SDS011;56334;52.398;7.552;2023-12-14T11:33:50;21.33;;;7.40;;
69226;SDS011;56334;52.398;7.552;2023-12-14T11:36:16;20.25;;;7.07;;
69226;SDS011;56334;52.398;7.552;2023-12-14T11:38:42;21.08;;;8.02;;
69226;SDS011;56334;52.398;7.552;2023-12-14T11:41:09;20.30;;;7.70;;
69226;SDS011;56334;52.398;7.552;2023-12-14T11:43:41;19.38;;;6.95;;
69226;SDS011;56334;52.398;7.552;2023-12-14T11:46:08;19.77;;;6.93;;
69226;SDS011;56334;52.398;7.552;2023-12-14T11:48:34;18.63;;;6.18;;
69226;SDS011;56334;52.398;7.552;2023-12-14T11:51:00;18.55;;;6.63;;
69226;SDS011;56334;52.398;7.552;2023-12-14T11:53:27;23.98;;;7.35;;
69226;SDS011;56334;52.398;7.552;2023-12-14T11:55:53;19.55;;;6.78;;
69226;SDS011;56334;52.398;7.552;2023-12-14T11:58:19;18.58;;;6.72;;
69226;SDS011;56334;52.398;7.552;2023-12-14T12:00:45;19.42;;;6.70;;
69226;SDS011;56334;52.398;7.552;2023-12-14T12:03:16;20.73;;;6.90;;
69226;SDS011;56334;52.398;7.552;2023-12-14T12:05:43;19.75;;;7.00;;
69226;SDS011;56334;52.398;7.552;2023-12-14T12:08:10;21.80;;;7.07;;
69226;SDS011;56334;52.398;7.552;2023-12-14T12:10:39;18.17;;;6.63;;
69226;SDS011;56334;52.398;7.552;2023-12-14T12:13:07;21.45;;;7.43;;
69226;SDS011;56334;52.398;7.552;2023-12-14T12:15:34;20.58;;;6.40;;
69226;SDS011;56334;52.398;7.552;2023-12-14T12:20:26;19.45;;;7.07;;
69226;SDS011;56334;52.398;7.552;2023-12-14T12:22:52;19.77;;;6.78;;
69226;SDS011;56334;52.398;7.552;2023-12-14T12:25:19;18.27;;;6.35;;
69226;SDS011;56334;52.398;7.552;2023-12-14T12:27:46;19.17;;;6.55;;
69226;SDS011;56334;52.398;7.552;2023-12-14T12:30:12;21.23;;;7.30;;
69226;SDS011;56334;52.398;7.552;2023-12-14T12:32:38;19.42;;;6.65;;
69226;SDS011;56334;52.398;7.552;2023-12-14T12:35:04;20.90;;;7.57;;
69226;SDS011;56334;52.398;7.552;2023-12-14T12:37:30;21.77;;;7.50;;
69226;SDS011;56334;52.398;7.552;2023-12-14T12:39:56;18.92;;;7.03;;
69226;SDS011;56334;52.398;7.552;2023-12-14T12:42:22;21.63;;;7.50;;
69226;SDS011;56334;52.398;7.552;2023-12-14T12:44:48;23.35;;;7.75;;
69226;SDS011;56334;52.398;7.552;2023-12-14T12:47:14;21.73;;;6.82;;
69226;SDS011;56334;52.398;7.552;2023-12-14T12:49:40;22.00;;;7.68;;
69226;SDS011;56334;52.398;7.552;2023-12-14T12:52:06;21.77;;;6.75;;
69226;SDS011;56334;52.398;7.552;2023-12-14T12:54:32;19.55;;;6.53;;
69226;SDS011;56334;52.398;7.552;2023-12-14T12:56:58;19.17;;;6.57;;
69226;SDS011;56334;52.398;7.552;2023-12-14T12:59:24;21.23;;;7.07;;
69226;SDS011;56334;52.398;7.552;2023-12-14T13:01:50;19.17;;;6.95;;
69226;SDS011;56334;52.398;7.552;2023-12-14T13:04:20;23.88;;;7.13;;
69226;SDS011;56334;52.398;7.552;2023-12-14T13:06:49;21.13;;;6.85;;
69226;SDS011;56334;52.398;7.552;2023-12-14T13:09:16;20.75;;;7.10;;
69226;SDS011;56334;52.398;7.552;2023-12-14T13:11:45;19.52;;;7.00;;
69226;SDS011;56334;52.398;7.552;2023-12-14T13:14:11;19.08;;;6.43;;
69226;SDS011;56334;52.398;7.552;2023-12-14T13:16:37;18.33;;;6.78;;
69226;SDS011;56334;52.398;7.552;2023-12-14T13:19:04;17.90;;;7.03;;
69226;SDS011;56334;52.398;7.552;2023-12-14T13:21:31;18.60;;;6.65;;
69226;SDS011;56334;52.398;7.552;2023-12-14T13:23:58;17.30;;;5.50;;
69226;SDS011;56334;52.398;7.552;2023-12-14T13:26:24;18.83;;;6.70;;
69226;SDS011;56334;52.398;7.552;2023-12-14T13:28:51;21.95;;;6.93;;
69226;SDS011;56334;52.398;7.552;2023-12-14T13:31:17;20.40;;;6.75;;
69226;SDS011;56334;52.398;7.552;2023-12-14T13:33:43;19.85;;;6.30;;
69226;SDS011;56334;52.398;7.552;2023-12-14T13:36:09;18.08;;;6.35;;
69226;SDS011;56334;52.398;7.552;2023-12-14T13:38:35;16.85;;;6.20;;
69226;SDS011;56334;52.398;7.552;2023-12-14T13:41:04;18.80;;;6.72;;
69226;SDS011;56334;52.398;7.552;2023-12-14T13:43:30;19.08;;;7.15;;
69226;SDS011;56334;52.398;7.552;2023-12-14T13:45:56;16.95;;;6.07;;
69226;SDS011;56334;52.398;7.552;2023-12-14T13:48:25;20.00;;;6.68;;
69226;SDS011;56334;52.398;7.552;2023-12-14T13:50:55;19.20;;;6.60;;
69226;SDS011;56334;52.398;7.552;2023-12-14T13:53:22;20.33;;;6.80;;
69226;SDS011;56334;52.398;7.552;2023-12-14T13:55:48;19.88;;;6.80;;
69226;SDS011;56334;52.398;7.552;2023-12-14T13:58:14;19.67;;;6.90;;
69226;SDS011;56334;52.398;7.552;2023-12-14T14:00:41;20.23;;;6.82;;
69226;SDS011;56334;52.398;7.552;2023-12-14T14:03:07;19.40;;;6.75;;
69226;SDS011;56334;52.398;7.552;2023-12-14T14:05:33;19.05;;;6.72;;
69226;SDS011;56334;52.398;7.552;2023-12-14T14:07:59;20.13;;;6.55;;
69226;SDS011;56334;52.398;7.552;2023-12-14T14:10:25;20.70;;;6.80;;
69226;SDS011;56334;52.398;7.552;2023-12-14T14:12:52;19.85;;;6.80;;
69226;SDS011;56334;52.398;7.552;2023-12-14T14:15:18;20.70;;;6.97;;
69226;SDS011;56334;52.398;7.552;2023-12-14T14:17:45;21.98;;;7.80;;
69226;SDS011;56334;52.398;7.552;2023-12-14T14:20:13;19.38;;;6.88;;
69226;SDS011;56334;52.398;7.552;2023-12-14T14:22:39;20.45;;;7.10;;
69226;SDS011;56334;52.398;7.552;2023-12-14T14:25:05;17.80;;;6.38;;
69226;SDS011;56334;52.398;7.552;2023-12-14T14:27:35;18.25;;;6.72;;
69226;SDS011;56334;52.398;7.552;2023-12-14T14:30:01;17.00;;;6.03;;
69226;SDS011;56334;52.398;7.552;2023-12-14T14:32:28;18.67;;;6.18;;
69226;SDS011;56334;52.398;7.552;2023-12-14T14:34:56;20.80;;;6.90;;
69226;SDS011;56334;52.398;7.552;2023-12-14T14:37:23;21.58;;;6.53;;
69226;SDS011;56334;52.398;7.552;2023-12-14T14:39:50;18.58;;;6.40;;
69226;SDS011;56334;52.398;7.552;2023-12-14T14:42:16;18.15;;;6.38;;